createdAt,value
2017-04-23T00:00:18.535Z,88.60
2017-04-23T00:01:18.087Z,88.70
2017-04-23T00:02:17.688Z,88.70
2017-04-23T00:03:16.955Z,88.80
2017-04-23T00:04:16.964Z,88.50
2017-04-23T00:06:16.359Z,88.50
2017-04-23T00:07:16.287Z,88.50
2017-04-23T00:08:15.540Z,88.40
2017-04-23T00:09:15.336Z,88.50
2017-04-23T00:10:14.597Z,88.50
2017-04-23T00:11:13.855Z,88.50
2017-04-23T00:12:13.475Z,88.50
2017-04-23T00:13:12.726Z,88.50
2017-04-23T00:14:11.987Z,88.50
2017-04-23T00:15:11.266Z,88.50
2017-04-23T00:16:10.506Z,88.40
2017-04-23T00:17:09.761Z,88.30
2017-04-23T00:18:09.052Z,88.20
2017-04-23T00:19:08.297Z,88.80
2017-04-23T00:20:08.280Z,88.90
2017-04-23T00:21:07.544Z,88.10
2017-04-23T00:22:06.788Z,87.90
2017-04-23T00:23:06.031Z,88.00
2017-04-23T00:24:05.324Z,87.80
2017-04-23T00:25:04.580Z,88.10
2017-04-23T00:26:04.207Z,87.70
2017-04-23T00:27:03.511Z,87.70
2017-04-23T00:28:02.755Z,87.60
2017-04-23T00:29:02.012Z,87.70
2017-04-23T00:30:01.631Z,87.80
2017-04-23T00:31:02.264Z,87.80
2017-04-23T00:32:01.911Z,87.90
2017-04-23T00:33:01.780Z,88.00
2017-04-23T00:34:01.698Z,87.90
2017-04-23T00:35:01.318Z,87.70
2017-04-23T00:36:00.584Z,87.90
2017-04-23T00:36:59.826Z,87.90
2017-04-23T00:37:59.058Z,87.70
2017-04-23T00:38:58.304Z,87.80
2017-04-23T00:39:58.623Z,87.70
2017-04-23T00:40:58.984Z,87.50
2017-04-23T00:41:58.224Z,87.60
2017-04-23T00:42:58.271Z,87.60
2017-04-23T00:43:57.555Z,87.60
2017-04-23T00:44:56.856Z,87.60
2017-04-23T00:45:56.400Z,87.40
2017-04-23T00:46:55.673Z,87.30
2017-04-23T00:47:54.979Z,87.70
2017-04-23T00:48:54.592Z,87.70
2017-04-23T00:49:53.893Z,87.50
2017-04-23T00:50:53.146Z,87.20
2017-04-23T00:51:53.315Z,87.10
2017-04-23T00:52:52.932Z,87.00
2017-04-23T00:53:52.193Z,86.80
2017-04-23T00:54:51.448Z,86.90
2017-04-23T00:55:50.692Z,86.80
2017-04-23T00:56:50.043Z,86.80
2017-04-23T00:57:50.095Z,86.50
2017-04-23T00:58:49.712Z,86.60
2017-04-23T00:59:49.263Z,86.50
2017-04-23T01:00:48.511Z,86.60
2017-04-23T01:01:48.143Z,86.00
2017-04-23T01:02:48.420Z,85.80
2017-04-23T01:03:47.665Z,86.20
2017-04-23T01:04:47.004Z,85.90
2017-04-23T01:05:46.607Z,86.60
2017-04-23T01:06:45.876Z,86.10
2017-04-23T01:07:45.483Z,86.10
2017-04-23T01:08:44.833Z,86.20
2017-04-23T01:09:44.088Z,86.00
2017-04-23T01:10:44.107Z,85.90
2017-04-23T01:11:44.099Z,86.10
2017-04-23T01:12:43.353Z,86.20
2017-04-23T01:13:42.605Z,86.20
2017-04-23T01:14:41.868Z,86.60
2017-04-23T01:15:41.130Z,86.60
2017-04-23T01:16:40.416Z,86.30
2017-04-23T01:17:40.300Z,86.40
2017-04-23T01:18:39.844Z,86.40
2017-04-23T01:19:39.120Z,86.30
2017-04-23T01:20:38.368Z,86.30
2017-04-23T01:21:37.613Z,86.40
2017-04-23T01:22:36.891Z,86.70
2017-04-23T01:23:36.127Z,86.70
2017-04-23T01:24:35.379Z,86.70
2017-04-23T01:25:34.638Z,86.80
2017-04-23T01:26:33.884Z,86.90
2017-04-23T01:27:34.244Z,87.20
2017-04-23T01:28:33.517Z,87.20
2017-04-23T01:29:32.767Z,87.10
2017-04-23T01:30:33.102Z,87.40
2017-04-23T01:31:32.368Z,87.40
2017-04-23T01:32:31.627Z,87.60
2017-04-23T01:33:30.876Z,87.60
2017-04-23T01:34:30.184Z,87.60
2017-04-23T01:35:29.459Z,87.80
2017-04-23T01:36:28.704Z,87.80
2017-04-23T01:37:28.571Z,87.60
2017-04-23T01:38:28.065Z,87.50
2017-04-23T01:39:27.306Z,87.40
2017-04-23T01:40:28.010Z,87.10
2017-04-23T01:41:27.984Z,87.40
2017-04-23T01:42:27.228Z,87.50
2017-04-23T01:43:27.221Z,87.30
2017-04-23T01:44:26.529Z,87.40
2017-04-23T01:45:26.928Z,87.40
2017-04-23T01:46:26.480Z,87.50
2017-04-23T01:47:26.083Z,87.70
2017-04-23T01:48:25.329Z,87.70
2017-04-23T01:49:25.664Z,87.70
2017-04-23T01:50:24.913Z,88.20
2017-04-23T01:51:24.192Z,87.70
2017-04-23T01:52:23.656Z,87.60
2017-04-23T01:53:23.568Z,87.60
2017-04-23T01:54:23.152Z,87.70
2017-04-23T01:55:22.403Z,87.80
2017-04-23T01:56:21.883Z,87.80
2017-04-23T01:57:21.159Z,88.00
2017-04-23T01:58:20.412Z,88.10
2017-04-23T01:59:19.999Z,88.10
2017-04-23T02:00:19.248Z,87.90
2017-04-23T02:01:18.496Z,88.00
2017-04-23T02:02:18.383Z,88.10
2017-04-23T02:03:18.379Z,88.30
2017-04-23T02:04:17.627Z,88.40
2017-04-23T02:05:16.881Z,88.50
2017-04-23T02:06:16.506Z,88.50
2017-04-23T02:07:16.104Z,88.50
2017-04-23T02:08:15.380Z,88.60
2017-04-23T02:09:15.008Z,88.70
2017-04-23T02:10:14.595Z,88.80
2017-04-23T02:11:14.583Z,88.40
2017-04-23T02:12:13.823Z,88.40
2017-04-23T02:13:13.813Z,88.40
2017-04-23T02:14:13.040Z,88.40
2017-04-23T02:15:13.400Z,88.40
2017-04-23T02:16:12.652Z,88.40
2017-04-23T02:17:12.004Z,88.20
2017-04-23T02:18:11.532Z,88.20
2017-04-23T02:19:11.531Z,88.40
2017-04-23T02:20:11.571Z,88.30
2017-04-23T02:21:10.865Z,88.30
2017-04-23T02:22:10.736Z,88.20
2017-04-23T02:23:11.420Z,88.10
2017-04-23T02:24:10.672Z,88.20
2017-04-23T02:25:10.182Z,88.40
2017-04-23T02:26:09.447Z,88.50
2017-04-23T02:27:08.733Z,88.20
2017-04-23T02:28:07.987Z,88.30
2017-04-23T02:29:07.279Z,88.40
2017-04-23T02:30:06.886Z,88.60
2017-04-23T02:31:06.355Z,88.70
2017-04-23T02:32:05.592Z,88.70
2017-04-23T02:33:05.676Z,88.70
2017-04-23T02:34:05.612Z,88.70
2017-04-23T02:35:04.904Z,88.60
2017-04-23T02:36:04.344Z,88.40
2017-04-23T02:37:04.328Z,88.60
2017-04-23T02:38:03.919Z,88.90
2017-04-23T02:39:03.232Z,88.90
2017-04-23T02:40:02.752Z,88.60
2017-04-23T02:41:02.339Z,88.50
2017-04-23T02:42:01.587Z,88.60
2017-04-23T02:43:00.846Z,88.70
2017-04-23T02:44:01.180Z,88.80
2017-04-23T02:45:00.463Z,88.70
2017-04-23T02:46:00.775Z,88.60
2017-04-23T02:47:01.090Z,88.80
2017-04-23T02:48:01.037Z,89.00
2017-04-23T02:49:00.935Z,88.80
2017-04-23T02:50:00.179Z,88.60
2017-04-23T02:51:00.484Z,88.70
2017-04-23T02:51:59.703Z,88.70
2017-04-23T02:52:59.263Z,88.70
2017-04-23T02:53:58.515Z,88.70
2017-04-23T02:54:57.739Z,88.80
2017-04-23T02:55:57.327Z,88.80
2017-04-23T02:56:56.544Z,88.60
2017-04-23T02:57:56.840Z,88.50
2017-04-23T02:58:56.459Z,88.20
2017-04-23T02:59:56.413Z,88.40
2017-04-23T03:00:55.920Z,88.30
2017-04-23T03:01:55.499Z,88.40
2017-04-23T03:02:55.364Z,88.40
2017-04-23T03:03:55.306Z,88.40
2017-04-23T03:04:54.516Z,88.40
2017-04-23T03:05:54.064Z,88.30
2017-04-23T03:06:53.524Z,88.50
2017-04-23T03:07:52.983Z,88.50
2017-04-23T03:08:52.197Z,88.60
2017-04-23T03:09:51.754Z,88.70
2017-04-23T03:10:51.567Z,88.80
2017-04-23T03:11:51.117Z,88.80
2017-04-23T03:12:50.664Z,89.00
2017-04-23T03:13:50.124Z,88.80
2017-04-23T03:14:50.089Z,88.80
2017-04-23T03:15:49.660Z,88.80
2017-04-23T03:16:49.218Z,88.90
2017-04-23T03:17:49.173Z,88.80
2017-04-23T03:18:48.384Z,88.90
2017-04-23T03:19:47.629Z,89.00
2017-04-23T03:20:46.831Z,89.40
2017-04-23T03:21:46.385Z,89.70
2017-04-23T03:22:45.622Z,89.60
2017-04-23T03:23:45.184Z,90.00
2017-04-23T03:24:45.483Z,90.20
2017-04-23T03:25:45.800Z,90.50
2017-04-23T03:26:45.776Z,90.30
2017-04-23T03:27:44.987Z,90.40
2017-04-23T03:28:44.208Z,90.30
2017-04-23T03:29:43.420Z,90.70
2017-04-23T03:30:43.324Z,90.70
2017-04-23T03:31:42.569Z,90.40
2017-04-23T03:32:42.740Z,90.50
2017-04-23T03:33:41.961Z,90.50
2017-04-23T03:34:41.176Z,90.50
2017-04-23T03:35:40.772Z,90.80
2017-04-23T03:36:39.992Z,90.50
2017-04-23T03:37:39.227Z,90.50
2017-04-23T03:38:39.520Z,90.60
2017-04-23T03:39:38.738Z,90.60
2017-04-23T03:40:38.715Z,90.60
2017-04-23T03:41:38.264Z,90.70
2017-04-23T03:42:37.595Z,90.70
2017-04-23T03:43:37.785Z,90.70
2017-04-23T03:44:36.996Z,90.60
2017-04-23T03:45:36.672Z,90.60
2017-04-23T03:46:35.916Z,90.70
2017-04-23T03:47:35.960Z,90.70
2017-04-23T03:48:35.564Z,90.70
2017-04-23T03:49:34.832Z,90.70
2017-04-23T03:50:34.080Z,90.70
2017-04-23T03:51:33.544Z,90.60
2017-04-23T03:52:33.128Z,90.60
2017-04-23T03:53:32.380Z,90.60
2017-04-23T03:54:31.620Z,90.60
2017-04-23T03:55:30.900Z,90.60
2017-04-23T03:56:30.135Z,90.50
2017-04-23T03:57:29.396Z,90.50
2017-04-23T03:58:29.052Z,90.50
2017-04-23T03:59:29.036Z,90.40
2017-04-23T04:00:28.311Z,90.40
2017-04-23T04:01:27.601Z,90.20
2017-04-23T04:02:26.840Z,90.20
2017-04-23T04:03:26.312Z,90.30
2017-04-23T04:04:26.653Z,90.40
2017-04-23T04:05:25.932Z,90.20
2017-04-23T04:06:25.924Z,90.20
2017-04-23T04:07:25.547Z,90.10
2017-04-23T04:08:24.798Z,90.20
2017-04-23T04:09:24.044Z,90.20
2017-04-23T04:10:23.400Z,90.30
2017-04-23T04:11:23.743Z,90.20
2017-04-23T04:12:23.004Z,90.00
2017-04-23T04:13:23.017Z,90.00
2017-04-23T04:14:23.343Z,90.00
2017-04-23T04:15:23.257Z,90.00
2017-04-23T04:16:22.532Z,90.00
2017-04-23T04:17:22.507Z,90.10
2017-04-23T04:18:21.754Z,90.00
2017-04-23T04:19:21.056Z,89.80
2017-04-23T04:20:21.663Z,89.90
2017-04-23T04:21:21.243Z,89.90
2017-04-23T04:22:21.079Z,90.00
2017-04-23T04:23:20.329Z,89.60
2017-04-23T04:24:20.328Z,89.50
2017-04-23T04:25:19.605Z,89.60
2017-04-23T04:26:18.849Z,89.90
2017-04-23T04:27:18.096Z,89.90
2017-04-23T04:28:18.075Z,89.90
2017-04-23T04:29:17.316Z,89.90
2017-04-23T04:30:16.560Z,89.80
2017-04-23T04:31:15.831Z,89.60
2017-04-23T04:32:15.076Z,89.60
2017-04-23T04:33:14.333Z,89.70
2017-04-23T04:34:13.563Z,89.50
2017-04-23T04:35:13.156Z,89.50
2017-04-23T04:36:12.387Z,89.30
2017-04-23T04:37:11.730Z,88.70
2017-04-23T04:38:11.716Z,88.60
2017-04-23T04:39:10.969Z,88.90
2017-04-23T04:40:10.951Z,89.60
2017-04-23T04:41:10.213Z,88.40
2017-04-23T04:42:10.201Z,88.30
2017-04-23T04:43:09.464Z,88.60
2017-04-23T04:44:08.695Z,88.50
2017-04-23T04:45:08.707Z,88.20
2017-04-23T04:46:08.699Z,88.30
2017-04-23T04:47:08.003Z,88.30
2017-04-23T04:48:07.987Z,88.30
2017-04-23T04:49:07.255Z,88.30
2017-04-23T04:50:07.247Z,88.10
2017-04-23T04:51:06.516Z,87.90
2017-04-23T04:52:05.781Z,88.80
2017-04-23T04:53:06.051Z,88.10
2017-04-23T04:54:05.572Z,88.00
2017-04-23T04:55:05.192Z,87.70
2017-04-23T04:56:05.180Z,87.50
2017-04-23T04:57:04.792Z,87.60
2017-04-23T04:58:05.126Z,87.80
2017-04-23T04:59:05.148Z,87.70
2017-04-23T05:00:05.416Z,87.80
2017-04-23T05:01:04.911Z,88.00
2017-04-23T05:02:04.155Z,88.00
2017-04-23T05:03:03.400Z,87.50
2017-04-23T05:04:02.646Z,87.50
2017-04-23T05:05:01.900Z,87.20
2017-04-23T05:06:01.312Z,87.60
2017-04-23T05:07:00.890Z,87.40
2017-04-23T05:08:00.132Z,87.00
2017-04-23T05:09:00.116Z,87.20
2017-04-23T05:09:59.367Z,87.00
2017-04-23T05:10:59.448Z,86.90
2017-04-23T05:11:58.710Z,86.90
2017-04-23T05:12:57.963Z,87.00
2017-04-23T05:13:57.968Z,87.20
2017-04-23T05:14:57.944Z,87.00
2017-04-23T05:15:57.180Z,86.80
2017-04-23T05:16:56.451Z,86.60
2017-04-23T05:17:56.464Z,86.40
2017-04-23T05:18:55.719Z,86.40
2017-04-23T05:19:55.324Z,85.90
2017-04-23T05:20:54.572Z,85.70
2017-04-23T05:21:54.136Z,85.70
2017-04-23T05:22:54.128Z,85.50
2017-04-23T05:23:54.132Z,85.20
2017-04-23T05:24:53.707Z,85.20
2017-04-23T05:25:52.956Z,85.00
2017-04-23T05:26:52.231Z,85.00
2017-04-23T05:27:51.476Z,84.90
2017-04-23T05:29:51.078Z,84.30
2017-04-23T05:30:50.336Z,83.60
2017-04-23T05:31:49.955Z,83.10
2017-04-23T05:32:49.192Z,82.70
2017-04-23T05:33:49.164Z,81.30
2017-04-23T05:34:48.400Z,80.70
2017-04-23T05:35:47.719Z,79.70
2017-04-23T05:36:46.947Z,79.20
2017-04-23T05:37:46.175Z,80.20
2017-04-23T05:38:45.420Z,80.50
2017-04-23T05:39:44.908Z,80.30
2017-04-23T05:40:44.488Z,80.80
2017-04-23T05:41:43.795Z,81.40
2017-04-23T05:42:43.165Z,82.40
2017-04-23T05:43:42.669Z,81.60
2017-04-23T05:44:42.675Z,82.10
2017-04-23T05:45:41.929Z,82.50
2017-04-23T05:46:41.508Z,82.50
2017-04-23T05:47:41.511Z,82.70
2017-04-23T05:48:41.765Z,82.90
2017-04-23T05:49:40.967Z,82.60
2017-04-23T05:50:40.524Z,82.80
2017-04-23T05:51:40.476Z,82.90
2017-04-23T05:52:40.020Z,83.40
2017-04-23T05:53:40.761Z,83.30
2017-04-23T05:54:39.959Z,83.10
2017-04-23T05:55:39.857Z,82.60
2017-04-23T05:56:39.062Z,82.30
2017-04-23T05:57:38.623Z,81.80
2017-04-23T05:58:38.924Z,81.80
2017-04-23T05:59:38.171Z,81.80
2017-04-23T06:00:37.418Z,82.20
2017-04-23T06:01:37.360Z,82.20
2017-04-23T06:02:36.558Z,81.70
2017-04-23T06:03:35.760Z,80.90
2017-04-23T06:04:35.312Z,79.50
2017-04-23T06:05:34.538Z,79.30
2017-04-23T06:06:33.740Z,78.60
2017-04-23T06:07:33.307Z,77.90
2017-04-23T06:08:32.508Z,77.40
2017-04-23T06:09:32.095Z,75.60
2017-04-23T06:10:31.301Z,73.20
2017-04-23T06:11:31.583Z,73.80
2017-04-23T06:12:31.083Z,75.80
2017-04-23T06:13:30.646Z,76.90
2017-04-23T06:14:30.600Z,76.30
2017-04-23T06:15:29.798Z,75.80
2017-04-23T06:16:29.343Z,76.20
2017-04-23T06:17:29.372Z,76.10
2017-04-23T06:18:28.701Z,77.20
2017-04-23T06:19:28.105Z,77.10
2017-04-23T06:20:27.663Z,75.90
2017-04-23T06:21:27.788Z,74.40
2017-04-23T06:22:27.363Z,71.30
2017-04-23T06:23:26.959Z,67.70
2017-04-23T06:24:26.533Z,64.70
2017-04-23T06:25:26.840Z,67.50
2017-04-23T06:26:26.778Z,71.40
2017-04-23T06:27:26.036Z,72.30
2017-04-23T06:28:26.341Z,73.60
2017-04-23T06:29:25.587Z,72.90
2017-04-23T06:30:25.488Z,74.50
2017-04-23T06:31:25.392Z,74.60
2017-04-23T06:32:24.664Z,74.00
2017-04-23T06:33:23.964Z,74.60
2017-04-23T06:34:23.878Z,74.40
2017-04-23T06:35:23.530Z,74.80
2017-04-23T06:36:23.834Z,74.60
2017-04-23T06:37:23.076Z,73.20
2017-04-23T06:38:22.680Z,73.60
2017-04-23T06:39:22.229Z,74.30
2017-04-23T06:40:22.483Z,74.40
2017-04-23T06:41:21.719Z,74.70
2017-04-23T06:42:20.960Z,74.50
2017-04-23T06:43:20.444Z,75.30
2017-04-23T06:44:19.643Z,75.30
2017-04-23T06:45:18.851Z,74.00
2017-04-23T06:46:18.103Z,74.40
2017-04-23T06:47:17.404Z,75.30
2017-04-23T06:48:16.653Z,73.50
2017-04-23T06:49:15.880Z,73.40
2017-04-23T06:50:15.110Z,74.10
2017-04-23T06:51:14.364Z,74.10
2017-04-23T06:52:13.622Z,72.80
2017-04-23T06:53:13.631Z,72.50
2017-04-23T06:54:12.898Z,71.10
2017-04-23T06:56:11.743Z,67.70
2017-04-23T06:57:10.999Z,61.40
2017-04-23T06:58:11.023Z,59.20
2017-04-23T06:59:10.320Z,57.00
2017-04-23T07:00:09.595Z,57.50
2017-04-23T07:01:09.602Z,55.80
2017-04-23T07:02:09.935Z,56.30
2017-04-23T07:03:09.556Z,55.60
2017-04-23T07:04:08.824Z,54.70
2017-04-23T07:05:08.447Z,55.50
2017-04-23T07:06:08.041Z,54.60
2017-04-23T07:07:07.329Z,54.50
2017-04-23T07:08:06.588Z,55.70
2017-04-23T07:09:06.245Z,56.00
2017-04-23T07:10:05.840Z,56.00
2017-04-23T07:11:05.147Z,56.70
2017-04-23T07:12:04.391Z,57.10
2017-04-23T07:13:03.744Z,55.90
2017-04-23T07:14:04.086Z,55.90
2017-04-23T07:15:03.688Z,56.10
2017-04-23T07:16:03.282Z,56.70
2017-04-23T07:17:02.569Z,58.00
2017-04-23T07:18:01.833Z,59.40
2017-04-23T07:19:02.780Z,60.90
2017-04-23T07:20:02.022Z,63.10
2017-04-23T07:21:01.555Z,62.90
2017-04-23T07:22:01.833Z,63.60
2017-04-23T07:23:01.096Z,62.50
2017-04-23T07:24:00.803Z,63.00
2017-04-23T07:25:00.053Z,64.70
2017-04-23T07:26:00.488Z,66.30
2017-04-23T07:27:00.020Z,67.20
2017-04-23T07:27:59.341Z,65.80
2017-04-23T07:28:58.836Z,65.20
2017-04-23T07:29:58.815Z,64.90
2017-04-23T07:30:58.331Z,65.10
2017-04-23T07:31:57.576Z,65.40
2017-04-23T07:32:56.821Z,65.60
2017-04-23T07:33:57.140Z,66.50
2017-04-23T07:34:56.771Z,65.60
2017-04-23T07:35:56.015Z,66.30
2017-04-23T07:36:55.254Z,67.50
2017-04-23T07:37:54.496Z,67.60
2017-04-23T07:38:54.487Z,67.10
2017-04-23T07:39:53.736Z,66.00
2017-04-23T07:40:53.003Z,66.30
2017-04-23T07:41:52.243Z,66.40
2017-04-23T07:42:51.615Z,66.80
2017-04-23T07:43:50.848Z,67.60
2017-04-23T07:44:50.081Z,67.10
2017-04-23T07:45:49.403Z,66.20
2017-04-23T07:46:49.372Z,66.40
2017-04-23T07:47:48.575Z,65.90
2017-04-23T07:48:47.783Z,65.40
2017-04-23T07:49:46.980Z,65.70
2017-04-23T07:50:46.923Z,65.10
2017-04-23T07:51:46.883Z,65.80
2017-04-23T07:52:46.102Z,64.80
2017-04-23T07:53:45.300Z,65.50
2017-04-23T07:54:45.087Z,66.60
2017-04-23T07:55:44.283Z,66.80
2017-04-23T07:56:43.543Z,67.30
2017-04-23T07:57:43.483Z,66.40
2017-04-23T07:58:43.464Z,64.90
2017-04-23T07:59:42.665Z,64.10
2017-04-23T08:00:41.859Z,64.10
2017-04-23T08:01:41.402Z,64.80
2017-04-23T08:02:40.601Z,65.20
2017-04-23T08:03:39.804Z,65.20
2017-04-23T08:04:39.384Z,64.90
2017-04-23T08:05:38.588Z,65.00
2017-04-23T08:06:38.167Z,66.00
2017-04-23T08:07:37.391Z,64.40
2017-04-23T08:08:36.948Z,64.10
2017-04-23T08:09:36.196Z,64.40
2017-04-23T08:10:36.184Z,65.00
2017-04-23T08:11:35.395Z,64.00
2017-04-23T08:12:35.331Z,64.70
2017-04-23T08:13:34.890Z,65.50
2017-04-23T08:14:34.100Z,65.10
2017-04-23T08:15:34.452Z,65.50
2017-04-23T08:16:33.692Z,64.80
2017-04-23T08:17:34.256Z,64.60
2017-04-23T08:18:33.680Z,64.80
2017-04-23T08:19:33.228Z,65.10
2017-04-23T08:20:32.426Z,65.80
2017-04-23T08:21:31.925Z,65.30
2017-04-23T08:22:31.174Z,65.20
2017-04-23T08:23:31.125Z,65.60
2017-04-23T08:24:30.339Z,65.90
2017-04-23T08:25:29.535Z,66.00
2017-04-23T08:26:29.100Z,66.20
2017-04-23T08:27:28.652Z,67.00
2017-04-23T08:28:27.879Z,65.30
2017-04-23T08:29:27.431Z,65.30
2017-04-23T08:30:27.743Z,65.60
2017-04-23T08:31:27.296Z,65.00
2017-04-23T08:32:26.500Z,65.10
2017-04-23T08:33:26.388Z,65.20
2017-04-23T08:34:25.611Z,66.20
2017-04-23T08:35:25.188Z,65.80
2017-04-23T08:36:24.408Z,65.10
2017-04-23T08:37:23.625Z,65.00
2017-04-23T08:38:22.829Z,64.50
2017-04-23T08:39:22.031Z,64.70
2017-04-23T08:40:21.240Z,64.30
2017-04-23T08:41:20.808Z,65.10
2017-04-23T08:42:20.368Z,63.70
2017-04-23T08:43:19.579Z,61.70
2017-04-23T08:44:19.134Z,62.10
2017-04-23T08:45:18.687Z,62.20
2017-04-23T08:46:17.913Z,60.30
2017-04-23T08:47:17.746Z,59.90
2017-04-23T08:48:18.052Z,59.90
2017-04-23T08:49:18.005Z,61.10
2017-04-23T08:50:17.892Z,60.60
2017-04-23T08:51:17.480Z,61.60
2017-04-23T08:52:16.689Z,60.70
2017-04-23T08:53:16.244Z,62.10
2017-04-23T08:54:16.205Z,63.80
2017-04-23T08:55:15.423Z,62.70
2017-04-23T08:56:15.904Z,62.10
2017-04-23T08:57:15.489Z,61.60
2017-04-23T08:58:14.693Z,61.70
2017-04-23T08:59:13.902Z,61.70
2017-04-23T09:00:13.440Z,62.80
2017-04-23T09:01:13.748Z,63.30
2017-04-23T09:02:14.052Z,63.10
2017-04-23T09:03:13.291Z,62.50
2017-04-23T09:04:12.503Z,62.70
2017-04-23T09:05:12.396Z,64.00
2017-04-23T09:06:11.976Z,63.80
2017-04-23T09:07:11.183Z,63.60
2017-04-23T09:08:10.408Z,63.00
2017-04-23T09:09:10.023Z,62.80
2017-04-23T09:10:09.975Z,63.40
2017-04-23T09:11:09.884Z,63.00
2017-04-23T09:12:09.132Z,62.60
2017-04-23T09:13:08.387Z,63.30
2017-04-23T09:14:07.941Z,63.90
2017-04-23T09:15:07.187Z,64.20
2017-04-23T09:16:07.475Z,65.70
2017-04-23T09:17:07.029Z,66.20
2017-04-23T09:18:06.249Z,66.80
2017-04-23T09:19:05.492Z,67.40
2017-04-23T09:20:06.132Z,68.20
2017-04-23T09:21:05.716Z,69.40
2017-04-23T09:22:05.611Z,70.30
2017-04-23T09:23:05.591Z,70.80
2017-04-23T09:24:04.791Z,71.90
2017-04-23T09:25:04.695Z,73.40
2017-04-23T09:26:04.587Z,74.30
2017-04-23T09:27:04.217Z,75.70
2017-04-23T09:28:03.453Z,75.80
2017-04-23T09:29:02.658Z,76.10
2017-04-23T09:30:01.896Z,76.80
2017-04-23T09:31:01.151Z,77.00
2017-04-23T09:32:00.375Z,78.40
2017-04-23T09:33:00.287Z,77.10
2017-04-23T09:33:59.495Z,76.00
2017-04-23T09:34:58.692Z,75.80
2017-04-23T09:35:58.248Z,76.40
2017-04-23T09:36:57.455Z,78.10
2017-04-23T09:37:56.705Z,76.70
2017-04-23T09:38:57.039Z,78.80
2017-04-23T09:39:56.252Z,78.00
2017-04-23T09:40:55.459Z,78.20
2017-04-23T09:41:55.408Z,78.60
2017-04-23T09:42:55.375Z,75.10
2017-04-23T09:43:54.907Z,74.10
2017-04-23T09:44:55.005Z,74.10
2017-04-23T09:45:54.328Z,72.70
2017-04-23T09:46:53.575Z,73.40
2017-04-23T09:47:52.834Z,72.90
2017-04-23T09:48:52.692Z,74.80
2017-04-23T09:49:52.668Z,77.30
2017-04-23T09:50:52.276Z,78.50
2017-04-23T09:51:51.761Z,79.80
2017-04-23T09:52:51.736Z,81.80
2017-04-23T09:53:51.031Z,82.80
2017-04-23T09:54:50.620Z,84.10
2017-04-23T09:55:49.875Z,81.00
2017-04-23T09:56:49.880Z,83.00
2017-04-23T09:57:49.859Z,82.20
2017-04-23T09:58:49.099Z,81.80
2017-04-23T09:59:49.460Z,82.40
2017-04-23T10:00:48.699Z,84.10
2017-04-23T10:01:48.743Z,85.50
2017-04-23T10:02:48.365Z,84.90
2017-04-23T10:03:48.277Z,84.50
2017-04-23T10:04:47.503Z,85.50
2017-04-23T10:05:47.086Z,85.20
2017-04-23T10:06:47.084Z,85.80
2017-04-23T10:07:47.558Z,86.40
2017-04-23T10:08:48.595Z,85.30
2017-04-23T10:09:47.820Z,85.80
2017-04-23T10:10:47.072Z,84.90
2017-04-23T10:11:46.662Z,85.80
2017-04-23T10:12:45.912Z,86.80
2017-04-23T10:13:45.900Z,85.20
2017-04-23T10:14:45.187Z,86.40
2017-04-23T10:15:44.428Z,85.80
2017-04-23T10:16:43.723Z,87.20
2017-04-23T10:17:42.960Z,87.50
2017-04-23T10:18:42.203Z,87.50
2017-04-23T10:19:41.438Z,87.80
2017-04-23T10:20:40.722Z,84.80
2017-04-23T10:21:39.960Z,85.00
2017-04-23T10:22:39.418Z,84.00
2017-04-23T10:23:39.387Z,84.70
2017-04-23T10:24:39.364Z,85.10
2017-04-23T10:25:38.596Z,83.70
2017-04-23T10:26:38.200Z,82.40
2017-04-23T10:27:37.452Z,82.80
2017-04-23T10:28:36.681Z,82.90
2017-04-23T10:29:35.907Z,83.60
2017-04-23T10:30:35.881Z,83.00
2017-04-23T10:31:35.152Z,81.10
2017-04-23T10:32:34.456Z,77.70
2017-04-23T10:33:34.145Z,76.60
2017-04-23T10:34:33.379Z,77.30
2017-04-23T10:35:32.615Z,76.60
2017-04-23T10:36:31.847Z,74.60
2017-04-23T10:37:31.826Z,74.00
2017-04-23T10:38:31.096Z,71.80
2017-04-23T10:39:30.371Z,72.50
2017-04-23T10:40:29.651Z,70.00
2017-04-23T10:41:29.195Z,69.60
2017-04-23T10:42:28.431Z,70.60
2017-04-23T10:43:27.672Z,69.20
2017-04-23T10:44:26.947Z,67.10
2017-04-23T10:45:26.415Z,64.40
2017-04-23T10:46:25.911Z,61.30
2017-04-23T10:47:25.138Z,60.70
2017-04-23T10:48:24.380Z,64.00
2017-04-23T10:49:23.655Z,58.30
2017-04-23T10:50:23.663Z,59.80
2017-04-23T10:51:22.995Z,60.90
2017-04-23T10:52:22.573Z,61.60
2017-04-23T10:53:21.808Z,59.50
2017-04-23T10:54:21.468Z,60.80
2017-04-23T10:55:20.931Z,61.00
2017-04-23T10:56:20.940Z,62.50
2017-04-23T10:57:20.936Z,60.60
2017-04-23T10:58:20.959Z,61.80
2017-04-23T10:59:20.265Z,58.40
2017-04-23T11:00:19.502Z,56.10
2017-04-23T11:01:18.744Z,57.00
2017-04-23T11:02:18.010Z,57.80
2017-04-23T11:03:17.996Z,58.40
2017-04-23T11:04:17.248Z,58.40
2017-04-23T11:05:16.502Z,56.40
2017-04-23T11:06:16.834Z,56.90
2017-04-23T11:07:16.108Z,56.30
2017-04-23T11:08:15.384Z,56.60
2017-04-23T11:09:15.355Z,56.40
2017-04-23T11:10:14.607Z,57.40
2017-04-23T11:11:13.863Z,57.80
2017-04-23T11:12:13.129Z,59.60
2017-04-23T11:13:12.711Z,58.40
2017-04-23T11:14:11.980Z,59.10
2017-04-23T11:15:11.560Z,59.00
2017-04-23T11:16:11.841Z,56.70
2017-04-23T11:17:11.076Z,57.70
2017-04-23T11:18:10.580Z,58.50
2017-04-23T11:19:09.816Z,58.50
2017-04-23T11:20:09.096Z,58.20
2017-04-23T11:21:08.348Z,56.80
2017-04-23T11:22:07.661Z,57.10
2017-04-23T11:23:06.907Z,58.10
2017-04-23T11:24:06.900Z,59.90
2017-04-23T11:25:07.227Z,64.60
2017-04-23T11:26:07.626Z,68.00
2017-04-23T11:27:07.379Z,70.40
2017-04-23T11:28:06.633Z,73.20
2017-04-23T11:29:06.632Z,74.50
2017-04-23T11:30:06.974Z,76.90
2017-04-23T11:31:06.489Z,77.80
2017-04-23T11:32:06.111Z,79.70
2017-04-23T11:33:05.371Z,80.20
2017-04-23T11:34:04.993Z,82.30
2017-04-23T11:35:04.584Z,81.10
2017-04-23T11:36:04.179Z,82.00
2017-04-23T11:37:03.772Z,81.90
2017-04-23T11:38:03.319Z,82.90
2017-04-23T11:39:04.572Z,81.70
2017-04-23T11:40:04.096Z,81.10
2017-04-23T11:41:03.330Z,81.40
2017-04-23T11:42:02.583Z,83.50
2017-04-23T11:43:02.164Z,82.30
2017-04-23T11:44:01.881Z,83.70
2017-04-23T11:45:01.119Z,85.20
2017-04-23T11:46:01.427Z,82.50
2017-04-23T11:47:01.391Z,84.80
2017-04-23T11:48:00.934Z,83.00
2017-04-23T11:51:58.945Z,82.50
2017-04-23T11:52:58.201Z,82.70
2017-04-23T11:53:58.165Z,84.90
2017-04-23T11:54:57.432Z,85.50
2017-04-23T11:55:56.696Z,84.60
2017-04-23T11:56:55.938Z,82.80
2017-04-23T11:57:55.180Z,84.80
2017-04-23T11:58:54.437Z,82.00
2017-04-23T11:59:53.684Z,77.40
2017-04-23T12:00:53.275Z,74.10
2017-04-23T12:01:52.520Z,72.40
2017-04-23T12:02:51.773Z,68.80
2017-04-23T12:03:51.401Z,64.80
2017-04-23T12:04:50.968Z,63.70
2017-04-23T12:05:50.201Z,67.80
2017-04-23T12:06:49.433Z,70.20
2017-04-23T12:07:48.696Z,66.00
2017-04-23T12:08:48.671Z,65.40
2017-04-23T12:09:47.933Z,67.30
2017-04-23T12:10:47.157Z,61.90
2017-04-23T12:11:46.384Z,65.60
2017-04-23T12:12:45.691Z,68.20
2017-04-23T12:13:45.588Z,67.70
2017-04-23T12:14:44.880Z,70.60
2017-04-23T12:15:44.162Z,70.70
2017-04-23T12:16:43.412Z,73.80
2017-04-23T12:17:42.660Z,71.50
2017-04-23T12:18:41.927Z,70.30
2017-04-23T12:19:41.156Z,71.40
2017-04-23T12:20:41.024Z,68.10
2017-04-23T12:21:40.700Z,71.00
2017-04-23T12:22:40.674Z,71.50
2017-04-23T12:23:39.913Z,70.20
2017-04-23T12:24:39.169Z,69.60
2017-04-23T12:25:38.437Z,66.20
2017-04-23T12:26:37.693Z,64.10
2017-04-23T12:27:37.171Z,63.20
2017-04-23T12:28:37.169Z,65.40
2017-04-23T12:29:37.519Z,63.10
2017-04-23T12:30:36.757Z,63.80
2017-04-23T12:31:35.987Z,57.80
2017-04-23T12:32:35.207Z,56.30
2017-04-23T12:33:34.473Z,55.90
2017-04-23T12:35:55.693Z,51.50
2017-04-23T12:36:55.297Z,53.50
2017-04-23T12:37:54.525Z,57.00
2017-04-23T12:38:54.452Z,55.30
2017-04-23T12:39:53.992Z,50.00
2017-04-23T12:40:53.904Z,52.70
2017-04-23T12:41:53.813Z,51.20
2017-04-23T12:42:54.081Z,49.90
2017-04-23T12:43:53.318Z,51.20
2017-04-23T12:44:53.594Z,49.90
2017-04-23T12:45:52.888Z,48.70
2017-04-23T12:46:52.145Z,48.10
2017-04-23T12:47:51.466Z,48.70
2017-04-23T12:48:51.041Z,48.10
2017-04-23T12:49:51.696Z,50.30
2017-04-23T12:50:51.356Z,45.90
2017-04-23T12:51:50.620Z,47.60
2017-04-23T12:52:50.885Z,47.50
2017-04-23T12:53:50.206Z,49.20